»·PEaware :: N123SX KELP-KLAX

N123SX :: KELP-KLAX

FLIGHT INFORMATION

Flight Status: Arrived
Operator: Privately registered:
United States
More flights under this callsign
Pilot: Shawn G. (7208)
Aircraft: ECLIPSE 500
(EA50)
More flights by this aircraft type
Origin: KELP El Paso Intl
United States
Destination: KLAX Los Angeles Intl
United States
More flights between these airports :: More routes between these airports
Route: +ATKNN5 FLOGS SSO J4 MESSI ESTWD HLYWD1
File this flight plan on PilotEdge
Remarks:
Altitude:
(Current/Filed)
28,000ft
Speed:
(Current/Filed)
340kts
Departed: 12-Aug-17 03:03 PM
Arrived: 12-Aug-17 05:10 PM
Distance/Time
Traveled:
618nm/2:07
Distance/Time
To Go:
Arrived

Flight Plot

Page will automatically refresh every two minutes.

Flight plan parsing failed; only flown route is shown


Map Options




Map Legend


Flown Route
Filed Route
Departure Airport
Arrival Airport
Navaid (VOR, NDB)
Fix

Horizontal Profiles

Position Reports

Time Latitude Longitude Heading Altitude Ground
Speed
12-Aug-17 14:53 31.797689 -106.376509 261 3938ft 0kts
12-Aug-17 14:54 31.797689 -106.376509 261 3938ft 0kts
12-Aug-17 14:55 31.797689 -106.376509 261 3938ft 0kts
12-Aug-17 14:56 31.797689 -106.376509 261 3938ft 0kts
12-Aug-17 14:57 31.797689 -106.376509 261 3938ft 0kts
12-Aug-17 14:58 31.797689 -106.376509 261 3938ft 0kts
12-Aug-17 14:59 31.797689 -106.376509 261 3938ft 0kts
12-Aug-17 15:00 31.797689 -106.376509 261 3938ft 0kts
12-Aug-17 15:01 31.798287 -106.376790 352 3938ft 7kts
12-Aug-17 15:02 31.799691 -106.377490 27 3938ft 6kts
12-Aug-17 15:03 31.799532 -106.371287 96 3938ft 10kts
12-Aug-17 15:04 31.799127 -106.363087 93 3938ft 21kts
12-Aug-17 15:05 31.799704 -106.360413 355 3938ft 2kts
12-Aug-17 15:06 31.801179 -106.370691 274 3938ft 107kts
12-Aug-17 15:07 31.796749 -106.418352 240 5386ft 179kts
12-Aug-17 15:08 31.771906 -106.467706 240 8008ft 179kts
12-Aug-17 15:09 31.773986 -106.520026 301 10316ft 185kts
12-Aug-17 15:10 31.801661 -106.571380 302 12482ft 190kts
12-Aug-17 15:11 31.815751 -106.631084 283 14489ft 194kts
12-Aug-17 15:12 31.827341 -106.693182 282 16329ft 198kts
12-Aug-17 15:13 31.839066 -106.756697 282 18023ft 203kts
12-Aug-17 15:14 31.850959 -106.821692 282 19607ft 206kts
12-Aug-17 15:15 31.863035 -106.888087 282 21084ft 209kts
12-Aug-17 15:16 31.875211 -106.955258 282 22446ft 213kts
12-Aug-17 15:17 31.887519 -107.023398 281 23723ft 215kts
12-Aug-17 15:18 31.899924 -107.092297 281 24894ft 218kts
12-Aug-17 15:19 31.912437 -107.162054 281 26142ft 213kts
12-Aug-17 15:20 31.924424 -107.229088 281 27278ft 210kts
12-Aug-17 15:21 31.936450 -107.296570 281 28126ft 217kts
12-Aug-17 15:22 31.949835 -107.372008 281 28140ft 255kts
12-Aug-17 15:23 31.965034 -107.457863 281 28127ft 283kts
12-Aug-17 15:24 31.981500 -107.551105 281 28117ft 299kts
12-Aug-17 15:25 31.998610 -107.648671 281 28116ft 310kts
12-Aug-17 15:26 32.016117 -107.748994 281 28120ft 318kts
12-Aug-17 15:27 32.033957 -107.851701 281 28119ft 323kts
12-Aug-17 15:28 32.051929 -107.955707 281 28118ft 326kts
12-Aug-17 15:29 32.069897 -108.060241 281 28124ft 327kts
12-Aug-17 15:30 32.087840 -108.165163 281 28142ft 327kts
12-Aug-17 15:31 32.105649 -108.269842 281 28166ft 327kts
12-Aug-17 15:32 32.123430 -108.374885 281 28181ft 327kts
12-Aug-17 15:33 32.141095 -108.479795 281 28188ft 328kts
12-Aug-17 15:34 32.158732 -108.585108 281 28189ft 329kts
12-Aug-17 15:35 32.176036 -108.689016 280 28193ft 330kts
12-Aug-17 15:36 32.193568 -108.794827 280 28186ft 331kts
12-Aug-17 15:37 32.211136 -108.901403 280 28161ft 332kts
12-Aug-17 15:38 32.228659 -109.008296 280 28125ft 333kts
12-Aug-17 15:39 32.246107 -109.115309 280 28094ft 333kts
12-Aug-17 15:40 32.263083 -109.222405 280 28071ft 333kts
12-Aug-17 15:41 32.292011 -109.325655 291 28059ft 334kts
12-Aug-17 15:42 32.326911 -109.426804 291 28043ft 333kts
12-Aug-17 15:43 32.362008 -109.527736 291 28042ft 333kts
12-Aug-17 15:44 32.397133 -109.628795 291 28042ft 332kts
12-Aug-17 15:45 32.430627 -109.725390 291 28046ft 333kts
12-Aug-17 15:46 32.465588 -109.826388 291 28046ft 333kts
12-Aug-17 15:47 32.500538 -109.927824 291 28045ft 333kts
12-Aug-17 15:48 32.535228 -110.028827 291 28045ft 333kts
12-Aug-17 15:49 32.569984 -110.130309 291 28044ft 333kts
12-Aug-17 15:50 32.604571 -110.231599 291 28035ft 333kts
12-Aug-17 15:51 32.639170 -110.333240 291 28019ft 332kts
12-Aug-17 15:52 32.673489 -110.434367 291 28012ft 330kts
12-Aug-17 15:53 32.707539 -110.535012 291 28013ft 329kts
12-Aug-17 15:54 32.741291 -110.635089 291 28007ft 328kts
12-Aug-17 15:55 32.774272 -110.733184 290 27992ft 328kts
12-Aug-17 15:56 32.807889 -110.833440 290 27968ft 329kts
12-Aug-17 15:57 32.841225 -110.932977 290 27955ft 323kts
12-Aug-17 15:58 32.874548 -111.032799 289 27954ft 327kts
12-Aug-17 15:59 32.907846 -111.133025 288 27954ft 328kts
12-Aug-17 16:00 32.941112 -111.233861 288 27947ft 328kts
12-Aug-17 16:02 32.974383 -111.334884 288 27938ft 328kts
12-Aug-17 16:03 33.007492 -111.435706 288 27937ft 327kts
12-Aug-17 16:04 33.040530 -111.536515 289 27937ft 327kts
12-Aug-17 16:05 33.073522 -111.637455 289 27937ft 327kts
12-Aug-17 16:06 33.106264 -111.738000 289 27936ft 327kts
12-Aug-17 16:07 33.139026 -111.838819 289 27928ft 327kts
12-Aug-17 16:08 33.171880 -111.940258 289 27924ft 328kts
12-Aug-17 16:09 33.204445 -112.041160 289 27918ft 327kts
12-Aug-17 16:10 33.237075 -112.142617 289 27911ft 328kts
12-Aug-17 16:11 33.269331 -112.243029 289 27880ft 325kts
12-Aug-17 16:12 33.301509 -112.343801 289 27877ft 325kts
12-Aug-17 16:13 33.333534 -112.444436 289 27873ft 326kts
12-Aug-17 16:14 33.365579 -112.545420 289 27869ft 325kts
12-Aug-17 16:15 33.397533 -112.646440 289 27867ft 325kts
12-Aug-17 16:16 33.429213 -112.746946 288 27873ft 326kts
12-Aug-17 16:17 33.462231 -112.847870 290 27872ft 326kts
12-Aug-17 16:18 33.497885 -112.947621 290 27872ft 328kts
12-Aug-17 16:19 33.533650 -113.047761 289 27871ft 330kts
12-Aug-17 16:20 33.569499 -113.148632 289 27871ft 330kts
12-Aug-17 16:21 33.605318 -113.249560 289 27870ft 330kts
12-Aug-17 16:22 33.640962 -113.350240 289 27870ft 330kts
12-Aug-17 16:23 33.676624 -113.451280 289 27869ft 329kts
12-Aug-17 16:24 33.712179 -113.552313 289 27864ft 330kts
12-Aug-17 16:25 33.747668 -113.653484 288 27842ft 330kts
12-Aug-17 16:26 33.783076 -113.754717 288 27823ft 330kts
12-Aug-17 16:27 33.817967 -113.856068 288 27818ft 330kts
12-Aug-17 16:28 33.852547 -113.957751 288 27818ft 331kts
12-Aug-17 16:29 33.887135 -114.059872 288 27817ft 330kts
12-Aug-17 16:30 33.913291 -114.164271 279 27817ft 326kts
12-Aug-17 16:30 33.928810 -114.253088 278 27817ft 326kts
12-Aug-17 16:32 33.949982 -114.377405 278 27816ft 327kts
12-Aug-17 16:33 33.967300 -114.480254 278 27816ft 327kts
12-Aug-17 16:34 33.985177 -114.587301 278 27815ft 326kts
12-Aug-17 16:35 34.000996 -114.690329 277 27820ft 326kts
12-Aug-17 16:36 34.018699 -114.797099 278 27820ft 326kts
12-Aug-17 16:37 34.036715 -114.903798 278 27819ft 326kts
12-Aug-17 16:37 34.051825 -114.992856 278 27819ft 325kts
12-Aug-17 16:38 34.069382 -115.099295 278 27818ft 324kts
12-Aug-17 16:39 34.086598 -115.205404 278 27817ft 323kts
12-Aug-17 16:40 34.103436 -115.311358 276 27873ft 322kts
12-Aug-17 16:41 34.119839 -115.417216 278 27936ft 323kts
12-Aug-17 16:42 34.136885 -115.523108 278 27958ft 322kts
12-Aug-17 16:43 34.154017 -115.628852 278 27958ft 323kts
12-Aug-17 16:44 34.159900 -115.729061 262 27964ft 319kts
12-Aug-17 16:45 34.149743 -115.834955 261 27963ft 319kts
12-Aug-17 16:46 34.139488 -115.941126 262 27962ft 319kts
12-Aug-17 16:47 34.129102 -116.047539 261 27961ft 321kts
12-Aug-17 16:48 34.118550 -116.153925 262 27960ft 321kts
12-Aug-17 16:49 34.108005 -116.260903 262 27920ft 322kts
12-Aug-17 16:50 34.096882 -116.367663 261 27862ft 322kts
12-Aug-17 16:51 34.085573 -116.472720 261 27826ft 322kts
12-Aug-17 16:52 34.074205 -116.579578 262 27821ft 321kts
12-Aug-17 16:53 34.064189 -116.684785 262 27838ft 320kts
12-Aug-17 16:54 34.053901 -116.794766 262 26421ft 358kts
12-Aug-17 16:55 34.041900 -116.913000 260 23581ft 359kts
12-Aug-17 16:56 34.026958 -117.030187 260 20331ft 348kts
12-Aug-17 16:57 34.013447 -117.142800 260 16822ft 336kts
12-Aug-17 16:58 34.000670 -117.250285 261 14942ft 320kts
12-Aug-17 16:59 33.987850 -117.358127 261 13651ft 324kts
12-Aug-17 17:00 33.975271 -117.464741 261 12137ft 319kts
12-Aug-17 17:01 33.986924 -117.569821 281 10997ft 313kts
12-Aug-17 17:02 34.003910 -117.665767 280 9983ft 293kts
12-Aug-17 17:03 33.999466 -117.759529 262 9039ft 277kts
12-Aug-17 17:04 33.990391 -117.853003 262 7867ft 269kts
12-Aug-17 17:05 33.981853 -117.939875 262 6153ft 268kts
12-Aug-17 17:06 33.973287 -118.026639 262 4994ft 244kts
12-Aug-17 17:07 33.965426 -118.105796 262 4672ft 247kts
12-Aug-17 17:08 33.957938 -118.182859 262 3340ft 195kts
12-Aug-17 17:09 33.951699 -118.244712 261 2379ft 183kts
12-Aug-17 17:10 33.946323 -118.296678 262 1537ft 129kts
12-Aug-17 17:11 33.942431 -118.333753 262 938ft 107kts
12-Aug-17 17:12 33.938880 -118.368755 262 376ft 105kts
12-Aug-17 17:13 33.935760 -118.398002 261 106ft 37kts
12-Aug-17 17:14 33.934303 -118.401803 146 106ft 0kts
12-Aug-17 17:15 33.934275 -118.401781 147 106ft 0kts
12-Aug-17 17:16 33.934275 -118.401781 147 106ft 0kts
12-Aug-17 17:17 33.934298 -118.400535 89 106ft 24kts
12-Aug-17 17:18 33.934875 -118.394593 81 106ft 23kts
12-Aug-17 17:19 33.933846 -118.394718 244 106ft 0kts
12-Aug-17 17:20 33.933846 -118.394718 244 106ft 0kts

Navigation Log

Ident Type
Flight plan parsing failed, navigation log unavailable